Time;durP1;ratioP1;P1;durP2;ratioP2;P2;SDS_P1;SDS_P2;PMS_P1;PMS_P2;Temp;Humidity;BMP_temperature;BMP_pressure;BME280_temperature;BME280_humidity;BME280_pressure;Samples;Min_cycle;Max_cycle;Signal;HPM_P1;HPM_P2
2022/03/23 00:01:09;;;;;;;6.07;4.35;;;23.00;32.60;;;;;;5026505;28;20559;-42
2022/03/23 00:03:37;;;;;;;6.50;4.80;;;23.00;32.70;;;;;;5024949;28;20075;-40
2022/03/23 00:06:03;;;;;;;5.65;4.35;;;23.00;32.60;;;;;;5025693;28;20710;-43
2022/03/23 00:08:29;;;;;;;5.22;3.92;;;23.00;32.60;;;;;;5026551;28;20091;-42
2022/03/23 00:10:55;;;;;;;6.90;4.85;;;23.00;32.60;;;;;;5026224;28;20045;-43
2022/03/23 00:13:21;;;;;;;6.10;4.80;;;23.00;32.60;;;;;;5024984;28;20030;-41
2022/03/23 00:15:47;;;;;;;5.75;4.38;;;23.00;32.60;;;;;;5023773;28;20038;-42
2022/03/23 00:18:13;;;;;;;5.65;4.15;;;23.00;32.60;;;;;;5026288;28;20082;-43
2022/03/23 00:20:40;;;;;;;5.47;4.25;;;23.00;32.50;;;;;;5024866;28;20675;-42
2022/03/23 00:23:08;;;;;;;6.07;4.53;;;23.00;32.50;;;;;;5026079;28;20025;-43
2022/03/23 00:25:35;;;;;;;5.88;4.45;;;23.00;32.50;;;;;;5025584;28;20030;-42
2022/03/23 00:28:01;;;;;;;6.30;4.75;;;23.00;32.60;;;;;;5026185;28;20036;-42
2022/03/23 00:30:26;;;;;;;5.68;3.92;;;22.90;32.60;;;;;;5026532;28;20033;-43
2022/03/23 00:32:52;;;;;;;6.45;4.80;;;22.90;32.60;;;;;;5026322;28;20036;-42
2022/03/23 00:35:18;;;;;;;6.03;4.45;;;22.90;32.60;;;;;;5026493;28;20133;-42
2022/03/23 00:37:43;;;;;;;5.78;4.13;;;22.90;32.60;;;;;;5025957;28;20084;-43
2022/03/23 00:40:10;;;;;;;6.35;4.80;;;22.90;32.60;;;;;;5026180;28;20655;-43
2022/03/23 00:42:36;;;;;;;5.35;4.15;;;22.90;32.60;;;;;;5025868;28;20044;-42
2022/03/23 00:45:04;;;;;;;5.70;4.28;;;22.90;32.50;;;;;;5025875;28;20034;-42
2022/03/23 00:47:30;;;;;;;5.47;4.20;;;22.90;32.50;;;;;;5004680;28;20037;-41
2022/03/23 00:49:56;;;;;;;6.35;4.28;;;22.80;32.50;;;;;;5006437;28;20045;-42
2022/03/23 00:52:21;;;;;;;5.03;3.55;;;22.80;32.40;;;;;;5006027;28;20038;-42
2022/03/23 00:54:47;;;;;;;6.70;4.70;;;22.80;32.40;;;;;;5005646;28;20034;-42
2022/03/23 00:57:13;;;;;;;5.55;3.85;;;22.80;32.40;;;;;;5022986;28;20055;-42
2022/03/23 00:59:39;;;;;;;5.43;4.03;;;22.80;32.50;;;;;;5026018;28;20029;-42
2022/03/23 01:02:09;;;;;;;5.63;4.18;;;22.80;32.40;;;;;;5025510;28;20029;-42
2022/03/23 01:04:35;;;;;;;4.95;3.85;;;22.80;32.40;;;;;;5025259;28;20033;-42
2022/03/23 01:07:01;;;;;;;5.63;4.32;;;22.80;32.40;;;;;;5025093;28;20038;-42
2022/03/23 01:09:26;;;;;;;5.47;3.63;;;22.80;32.40;;;;;;5025196;28;20068;-42
2022/03/23 01:11:54;;;;;;;5.22;3.83;;;22.80;32.40;;;;;;5025663;28;20037;-41
2022/03/23 01:14:22;;;;;;;5.63;3.90;;;22.80;32.40;;;;;;5025268;28;20034;-43
2022/03/23 01:16:50;;;;;;;5.53;4.45;;;22.70;32.50;;;;;;5025236;28;20087;-42
2022/03/23 01:19:17;;;;;;;4.97;3.47;;;22.70;32.50;;;;;;5025712;28;20025;-45
2022/03/23 01:21:44;;;;;;;5.47;3.95;;;22.70;32.50;;;;;;5025416;28;20052;-42
2022/03/23 01:24:10;;;;;;;5.28;3.85;;;22.70;32.50;;;;;;5025544;28;20108;-41
2022/03/23 01:26:36;;;;;;;4.72;3.70;;;22.70;32.50;;;;;;5025059;28;20037;-42
2022/03/23 01:29:03;;;;;;;5.72;3.88;;;22.70;32.40;;;;;;5025486;28;20061;-43
2022/03/23 01:31:30;;;;;;;5.20;3.80;;;22.70;33.00;;;;;;5024972;28;20072;-44
2022/03/23 01:33:59;;;;;;;5.18;3.90;;;22.70;32.40;;;;;;5025344;28;20548;-41
2022/03/23 01:36:31;;;;;;;5.85;4.15;;;22.70;32.40;;;;;;5024703;28;20029;-40
2022/03/23 01:38:58;;;;;;;5.43;4.07;;;22.70;33.00;;;;;;5023949;28;20028;-40
2022/03/23 01:41:24;;;;;;;5.10;3.78;;;22.70;32.40;;;;;;5025221;28;20748;-41
2022/03/23 01:43:50;;;;;;;4.80;3.42;;;22.60;32.30;;;;;;5023312;28;20029;-42
2022/03/23 01:46:18;;;;;;;5.38;3.92;;;22.60;32.30;;;;;;5024367;28;20036;-42
2022/03/23 01:48:44;;;;;;;5.07;3.72;;;22.60;32.30;;;;;;5024457;28;20414;-42
2022/03/23 01:51:12;;;;;;;5.60;4.20;;;22.60;32.30;;;;;;5023143;28;20025;-42
2022/03/23 01:53:38;;;;;;;5.60;3.90;;;22.60;32.30;;;;;;5025018;28;20025;-43
2022/03/23 01:56:04;;;;;;;4.90;3.50;;;22.60;32.30;;;;;;5024925;28;20033;-42
2022/03/23 01:58:31;;;;;;;4.97;3.80;;;22.60;32.30;;;;;;5024670;28;20032;-42
2022/03/23 02:00:56;;;;;;;5.03;3.63;;;22.60;32.30;;;;;;5030704;28;20029;-42
2022/03/23 02:03:22;;;;;;;5.10;3.80;;;22.60;32.30;;;;;;5044340;28;20025;-42
2022/03/23 02:05:48;;;;;;;4.95;3.70;;;22.60;32.30;;;;;;5044439;28;20036;-41
2022/03/23 02:08:15;;;;;;;5.43;4.00;;;22.60;32.30;;;;;;5044335;28;20032;-41
2022/03/23 02:10:41;;;;;;;5.30;3.97;;;22.60;32.30;;;;;;5042304;28;20032;-42
2022/03/23 02:13:09;;;;;;;4.88;3.33;;;22.60;32.30;;;;;;5024654;28;20112;-42
2022/03/23 02:15:35;;;;;;;4.57;3.47;;;22.50;32.30;;;;;;5024691;28;20485;-42
2022/03/23 02:18:02;;;;;;;4.78;3.53;;;22.50;32.30;;;;;;5022936;28;20128;-43
2022/03/23 02:20:28;;;;;;;4.88;3.58;;;22.50;32.30;;;;;;5022945;28;20049;-43
2022/03/23 02:22:54;;;;;;;4.78;3.40;;;22.50;32.30;;;;;;5024466;28;20084;-42
2022/03/23 02:25:23;;;;;;;4.63;3.53;;;22.50;32.20;;;;;;5024317;28;20233;-42
2022/03/23 02:27:50;;;;;;;4.70;3.38;;;22.50;32.20;;;;;;5024118;28;20638;-42
2022/03/23 02:30:16;;;;;;;5.68;3.70;;;22.50;32.20;;;;;;5024159;28;20041;-42
2022/03/23 02:32:42;;;;;;;5.10;3.58;;;22.50;32.20;;;;;;5022525;28;20064;-42
2022/03/23 02:35:11;;;;;;;4.97;3.58;;;22.50;32.20;;;;;;5023896;28;20025;-42
2022/03/23 02:37:40;;;;;;;4.47;3.08;;;22.50;32.20;;;;;;5023836;28;20029;-42
2022/03/23 02:40:08;;;;;;;5.72;3.55;;;22.50;32.30;;;;;;5024232;28;20033;-42
2022/03/23 02:42:35;;;;;;;4.72;3.40;;;22.40;32.10;;;;;;5022870;28;20528;-42
2022/03/23 02:45:01;;;;;;;4.85;3.80;;;22.40;32.20;;;;;;5026691;28;20037;-42
2022/03/23 02:47:26;;;;;;;4.85;3.80;;;22.40;32.20;;;;;;5027503;28;20094;-42
2022/03/23 02:49:52;;;;;;;4.63;3.42;;;22.40;32.20;;;;;;5026531;28;20033;-42
2022/03/23 02:52:18;;;;;;;5.65;3.53;;;22.40;32.20;;;;;;5028261;28;20041;-41
2022/03/23 03:03:09;;;;;;;4.88;3.50;;;22.40;32.20;;;;;;5028154;28;20075;-43
2022/03/23 03:05:35;;;;;;;5.20;3.50;;;22.40;32.10;;;;;;5026532;28;20022;-43
2022/03/23 03:10:45;;;;;;;4.47;3.13;;;22.40;32.10;;;;;;5026612;28;20421;-43
2022/03/23 03:13:11;;;;;;;5.20;3.60;;;22.40;32.10;;;;;;5027167;28;20037;-42
2022/03/23 03:15:36;;;;;;;4.68;3.17;;;22.40;32.10;;;;;;5027910;28;20034;-41
2022/03/23 03:18:02;;;;;;;4.57;3.28;;;22.40;32.10;;;;;;5027619;28;20021;-42
2022/03/23 03:20:29;;;;;;;4.57;3.20;;;22.30;32.00;;;;;;5027898;28;20025;-41
2022/03/23 03:22:54;;;;;;;4.72;3.30;;;22.30;32.10;;;;;;5027845;28;20417;-42
2022/03/23 03:25:21;;;;;;;4.57;3.17;;;22.30;32.10;;;;;;5027702;28;20033;-42
2022/03/23 03:27:48;;;;;;;4.80;3.35;;;22.30;32.10;;;;;;5027227;28;20032;-42
2022/03/23 03:30:17;;;;;;;5.03;3.53;;;22.30;32.10;;;;;;5026517;28;20026;-43
2022/03/23 03:32:44;;;;;;;5.25;3.53;;;22.30;32.10;;;;;;5027260;28;20084;-42
2022/03/23 03:35:11;;;;;;;4.95;3.50;;;22.30;32.10;;;;;;5025649;28;20610;-43
2022/03/23 03:37:38;;;;;;;4.82;3.42;;;22.30;32.20;;;;;;5027570;28;20095;-41
2022/03/23 03:40:05;;;;;;;4.97;3.45;;;22.30;32.10;;;;;;5027506;28;20029;-42
2022/03/23 03:42:31;;;;;;;4.40;2.95;;;22.30;32.10;;;;;;5026524;28;20033;-42
2022/03/23 03:44:57;;;;;;;4.35;3.10;;;22.20;32.00;;;;;;5027215;28;20033;-43
2022/03/23 03:47:23;;;;;;;4.53;3.42;;;22.30;32.10;;;;;;5026794;28;20037;-42
2022/03/23 03:49:50;;;;;;;5.45;3.72;;;22.30;32.00;;;;;;5027194;28;20052;-42
2022/03/23 03:52:18;;;;;;;5.07;3.20;;;22.20;31.90;;;;;;5026268;28;20036;-42
2022/03/23 03:54:44;;;;;;;4.70;3.03;;;22.30;32.10;;;;;;5026522;28;20030;-43
2022/03/23 03:57:10;;;;;;;4.40;2.75;;;22.30;32.00;;;;;;5026055;28;20456;-42
2022/03/23 03:59:36;;;;;;;4.55;3.00;;;22.30;32.00;;;;;;5026754;28;20044;-42
2022/03/23 04:02:03;;;;;;;4.95;3.08;;;22.30;32.00;;;;;;5025434;28;20044;-42
2022/03/23 04:04:30;;;;;;;4.32;2.85;;;22.20;31.90;;;;;;5026603;28;20037;-43
2022/03/23 04:06:56;;;;;;;4.68;3.33;;;22.20;31.90;;;;;;5025807;28;20108;-43
2022/03/23 04:09:22;;;;;;;5.03;3.17;;;22.20;31.90;;;;;;5026992;28;20040;-43
2022/03/23 04:11:47;;;;;;;4.40;2.90;;;22.20;32.00;;;;;;5026807;28;20447;-43
2022/03/23 04:14:13;;;;;;;4.18;2.95;;;22.20;32.00;;;;;;5026958;28;20519;-42
2022/03/23 04:16:39;;;;;;;4.25;2.83;;;22.30;32.10;;;;;;5026525;28;20048;-42
2022/03/23 04:19:06;;;;;;;5.57;2.90;;;22.20;32.00;;;;;;5025471;28;20500;-42
2022/03/23 04:21:32;;;;;;;5.47;3.03;;;22.20;32.00;;;;;;5025831;28;20025;-43
2022/03/23 04:23:58;;;;;;;4.00;2.53;;;22.20;32.00;;;;;;5025846;28;20036;-43
2022/03/23 04:26:24;;;;;;;4.85;3.30;;;22.20;32.00;;;;;;5025793;28;20025;-41
2022/03/23 04:28:51;;;;;;;5.53;3.67;;;22.20;31.90;;;;;;5026261;28;20029;-43
2022/03/23 04:31:17;;;;;;;4.20;2.97;;;22.20;31.90;;;;;;5025713;28;20029;-43
2022/03/23 04:33:43;;;;;;;4.40;3.20;;;22.20;32.00;;;;;;5025829;28;20030;-43
2022/03/23 04:36:10;;;;;;;4.10;3.03;;;22.20;31.90;;;;;;5025803;28;20052;-42
2022/03/23 04:38:37;;;;;;;5.07;3.22;;;22.10;31.90;;;;;;5026136;28;20547;-42
2022/03/23 04:41:04;;;;;;;4.47;2.90;;;22.20;31.90;;;;;;5024535;28;20047;-42
2022/03/23 04:43:30;;;;;;;4.00;2.75;;;22.20;31.90;;;;;;5025582;28;20025;-40
2022/03/23 04:45:56;;;;;;;4.00;2.60;;;22.10;31.90;;;;;;5025793;28;20079;-41
2022/03/23 04:48:22;;;;;;;5.25;3.80;;;22.10;31.90;;;;;;5025857;28;20033;-40
2022/03/23 04:50:48;;;;;;;5.05;3.50;;;22.10;31.90;;;;;;5026196;28;20668;-42
2022/03/23 04:53:15;;;;;;;4.15;2.85;;;22.10;32.00;;;;;;5026469;28;20240;-42
2022/03/23 04:55:41;;;;;;;3.70;2.80;;;22.10;32.00;;;;;;5025486;28;20140;-43
2022/03/23 04:58:07;;;;;;;4.95;2.97;;;22.10;31.90;;;;;;5025182;28;20104;-41
2022/03/23 05:00:34;;;;;;;4.70;3.33;;;22.10;31.90;;;;;;5025702;28;20029;-42
2022/03/23 05:03:01;;;;;;;5.00;3.63;;;22.10;32.00;;;;;;5024840;28;20155;-43
2022/03/23 05:05:27;;;;;;;4.25;2.85;;;22.10;31.90;;;;;;5024175;28;20033;-43
2022/03/23 05:07:53;;;;;;;4.60;3.08;;;22.10;31.90;;;;;;5024489;28;20040;-41
2022/03/23 05:10:19;;;;;;;4.07;2.80;;;22.10;31.90;;;;;;5025126;28;20163;-43
2022/03/23 05:12:45;;;;;;;4.18;3.00;;;22.10;31.90;;;;;;5023928;28;20097;-42
2022/03/23 05:15:13;;;;;;;4.68;3.00;;;22.10;32.00;;;;;;5025221;28;20029;-43
2022/03/23 05:17:40;;;;;;;3.88;2.67;;;22.10;32.00;;;;;;5024012;28;20061;-42
2022/03/23 05:20:08;;;;;;;4.43;2.95;;;22.10;32.10;;;;;;5023289;28;20032;-42
2022/03/23 05:22:37;;;;;;;4.50;2.90;;;22.10;32.20;;;;;;5024442;28;20371;-42
2022/03/23 05:25:06;;;;;;;4.15;2.67;;;22.10;32.20;;;;;;5023457;28;20144;-42
2022/03/23 05:27:38;;;;;;;4.57;2.90;;;22.10;32.30;;;;;;5024494;28;20712;-42
2022/03/23 05:30:07;;;;;;;4.47;2.72;;;22.20;32.30;;;;;;5023354;28;20171;-42
2022/03/23 05:32:34;;;;;;;4.13;2.65;;;22.20;32.30;;;;;;5024830;28;20033;-43
2022/03/23 05:35:00;;;;;;;4.47;2.60;;;22.20;32.40;;;;;;5024803;28;20029;-43
2022/03/23 05:37:25;;;;;;;4.03;2.70;;;22.30;32.50;;;;;;5024212;28;20020;-43
2022/03/23 05:39:51;;;;;;;4.07;2.63;;;22.30;32.50;;;;;;5024415;28;20022;-42
2022/03/23 05:42:17;;;;;;;4.88;2.80;;;22.40;32.50;;;;;;5022467;28;20100;-42
2022/03/23 05:44:43;;;;;;;4.00;2.50;;;22.40;32.40;;;;;;5023638;28;20056;-44
2022/03/23 05:47:08;;;;;;;4.28;2.67;;;22.50;32.40;;;;;;5024211;28;20041;-42
2022/03/23 05:49:34;;;;;;;4.25;2.72;;;22.60;32.30;;;;;;5023268;28;20029;-43
2022/03/23 05:52:00;;;;;;;4.55;3.05;;;22.60;32.10;;;;;;5023929;28;20060;-43
2022/03/23 05:54:26;;;;;;;4.07;2.95;;;22.70;32.10;;;;;;5023528;28;20053;-43
2022/03/23 05:56:52;;;;;;;4.32;3.03;;;22.70;32.10;;;;;;5022654;28;20448;-43
2022/03/23 05:59:18;;;;;;;5.38;3.15;;;22.80;32.00;;;;;;5023061;28;20013;-42
2022/03/23 06:01:44;;;;;;;4.80;3.05;;;22.80;32.00;;;;;;5016547;28;20025;-42
2022/03/23 06:04:10;;;;;;;5.32;3.40;;;22.90;32.60;;;;;;5025983;28;20037;-42
2022/03/23 06:06:36;;;;;;;4.80;3.40;;;23.00;32.60;;;;;;5024075;28;20032;-43
2022/03/23 06:09:02;;;;;;;5.20;3.47;;;23.00;32.50;;;;;;5023056;28;20092;-43
2022/03/23 06:11:28;;;;;;;5.05;3.40;;;23.00;32.60;;;;;;5022801;28;20030;-42
2022/03/23 06:13:54;;;;;;;4.72;3.30;;;23.10;32.60;;;;;;5022690;28;20500;-43
2022/03/23 06:16:19;;;;;;;5.50;3.70;;;23.10;32.40;;;;;;5022443;28;20045;-43
2022/03/23 06:18:46;;;;;;;4.75;3.53;;;23.20;32.30;;;;;;5022203;28;20580;-41
2022/03/23 06:21:12;;;;;;;5.43;3.97;;;23.20;32.40;;;;;;5023651;28;20101;-43
2022/03/23 06:23:38;;;;;;;4.50;2.92;;;23.30;32.60;;;;;;5023858;28;20719;-42
2022/03/23 06:26:05;;;;;;;5.25;3.67;;;23.30;32.60;;;;;;5022666;28;20036;-42
2022/03/23 06:28:31;;;;;;;5.55;3.40;;;23.40;32.50;;;;;;5022919;28;20037;-43
2022/03/23 06:30:58;;;;;;;6.32;3.75;;;23.40;32.50;;;;;;5023437;28;20040;-42
2022/03/23 06:33:23;;;;;;;5.10;3.80;;;23.40;32.50;;;;;;5006699;28;20482;-42
2022/03/23 06:35:51;;;;;;;7.55;3.67;;;23.50;32.40;;;;;;5020610;28;20091;-44
2022/03/23 06:38:17;;;;;;;5.43;3.13;;;23.50;32.30;;;;;;5023750;28;20025;-43
2022/03/23 06:40:43;;;;;;;5.20;3.80;;;23.50;32.30;;;;;;5022382;28;20053;-43
2022/03/23 06:43:09;;;;;;;5.25;3.63;;;23.50;32.10;;;;;;5024325;28;20013;-44
2022/03/23 06:45:35;;;;;;;5.95;3.50;;;23.60;32.00;;;;;;5005214;28;20511;-43
2022/03/23 06:48:02;;;;;;;5.68;4.10;;;23.60;32.10;;;;;;5022740;28;20057;-43
2022/03/23 06:50:28;;;;;;;4.95;3.92;;;23.60;32.10;;;;;;5022315;28;20095;-43
2022/03/23 06:52:54;;;;;;;8.18;4.13;;;23.60;32.10;;;;;;5022795;28;20040;-43
2022/03/23 06:55:20;;;;;;;6.50;4.25;;;23.70;32.10;;;;;;5032291;28;20110;-42
2022/03/23 06:57:45;;;;;;;6.10;4.40;;;23.70;32.10;;;;;;5042816;28;20645;-43
2022/03/23 07:00:14;;;;;;;6.68;4.55;;;23.70;32.10;;;;;;5023014;28;20028;-43
2022/03/23 07:02:45;;;;;;;5.88;4.28;;;23.70;32.10;;;;;;5023082;28;20026;-44
2022/03/23 07:05:12;;;;;;;6.38;4.35;;;23.70;32.70;;;;;;5022293;28;20091;-43
2022/03/23 07:07:38;;;;;;;7.03;4.22;;;23.70;32.00;;;;;;5021909;28;20116;-43
2022/03/23 07:10:04;;;;;;;6.57;4.45;;;23.70;32.60;;;;;;5023773;28;20640;-43
2022/03/23 07:12:31;;;;;;;6.85;4.93;;;23.70;32.00;;;;;;5020650;28;20048;-43
2022/03/23 07:14:57;;;;;;;7.30;4.30;;;23.70;31.90;;;;;;4998260;28;20030;-44
2022/03/23 07:17:23;;;;;;;6.45;4.88;;;23.70;31.80;;;;;;5020129;28;20044;-43
2022/03/23 07:19:50;;;;;;;6.80;4.50;;;23.70;31.90;;;;;;5020699;28;20727;-44
2022/03/23 07:22:16;;;;;;;5.55;4.40;;;23.70;31.80;;;;;;5020303;28;20470;-44
2022/03/23 07:24:43;;;;;;;6.50;4.70;;;23.70;31.70;;;;;;5021564;28;20103;-42
2022/03/23 07:27:09;;;;;;;6.75;4.65;;;23.70;31.60;;;;;;5021427;28;20221;-43
2022/03/23 07:29:35;;;;;;;6.95;4.88;;;23.70;31.50;;;;;;5022468;28;20100;-42
2022/03/23 07:32:01;;;;;;;7.38;5.25;;;23.60;31.50;;;;;;5025827;28;20029;-44
2022/03/23 07:34:27;;;;;;;7.88;5.47;;;23.70;31.60;;;;;;5025952;28;20064;-43
2022/03/23 07:36:52;;;;;;;7.32;4.68;;;23.70;31.50;;;;;;5024752;28;20021;-44
2022/03/23 07:39:23;;;;;;;7.07;4.95;;;23.70;31.60;;;;;;5025247;28;20014;-43
2022/03/23 07:41:55;;;;;;;7.65;5.05;;;23.70;31.40;;;;;;5025105;28;20079;-43
2022/03/23 07:44:21;;;;;;;6.30;4.47;;;23.70;31.40;;;;;;5024579;28;20026;-44
2022/03/23 07:46:47;;;;;;;6.72;4.20;;;23.70;31.40;;;;;;5026261;28;20083;-41
2022/03/23 07:49:14;;;;;;;7.07;5.57;;;23.60;31.30;;;;;;5025502;28;20642;-43
2022/03/23 07:51:40;;;;;;;6.78;4.85;;;23.70;31.40;;;;;;5025285;28;20112;-42
2022/03/23 07:54:07;;;;;;;5.65;4.70;;;23.70;31.40;;;;;;5026126;28;20032;-44
2022/03/23 07:56:34;;;;;;;6.68;4.90;;;23.60;31.30;;;;;;5024848;28;20033;-43
2022/03/23 07:58:59;;;;;;;6.00;4.30;;;23.70;31.40;;;;;;5018068;28;20438;-43
2022/03/23 08:01:25;;;;;;;5.55;3.88;;;23.70;31.40;;;;;;5019515;28;20032;-42
2022/03/23 08:03:51;;;;;;;6.40;4.32;;;23.70;32.00;;;;;;5025060;28;20030;-41
2022/03/23 08:06:17;;;;;;;6.72;4.40;;;23.70;31.40;;;;;;5025273;28;20029;-42
2022/03/23 08:08:43;;;;;;;6.18;4.70;;;23.70;32.00;;;;;;5024512;28;20362;-43
2022/03/23 08:11:09;;;;;;;6.75;4.05;;;23.70;31.40;;;;;;5024785;28;20026;-43
2022/03/23 08:13:35;;;;;;;7.05;5.05;;;23.70;31.40;;;;;;5025543;28;20079;-43
2022/03/23 08:16:01;;;;;;;6.00;4.57;;;23.80;31.40;;;;;;5025358;28;20032;-43
2022/03/23 08:18:27;;;;;;;6.97;4.28;;;23.80;31.40;;;;;;5025299;28;20029;-43
2022/03/23 08:20:53;;;;;;;6.05;4.45;;;23.80;31.40;;;;;;5025947;28;20026;-43
2022/03/23 08:23:19;;;;;;;6.25;4.22;;;23.80;31.40;;;;;;5026502;28;20093;-44
2022/03/23 08:25:45;;;;;;;6.45;4.35;;;23.80;31.40;;;;;;5024868;28;20104;-43
2022/03/23 08:28:12;;;;;;;5.93;4.43;;;23.80;31.40;;;;;;5025194;28;20049;-43
2022/03/23 08:30:38;;;;;;;6.00;4.35;;;23.80;31.40;;;;;;5023231;28;20029;-43
2022/03/23 08:33:05;;;;;;;6.15;4.40;;;23.80;31.40;;;;;;5023431;28;20532;-42
2022/03/23 08:35:31;;;;;;;7.18;4.45;;;23.70;31.60;;;;;;5006146;28;20828;-43
2022/03/23 08:37:58;;;;;;;7.53;4.88;;;23.80;31.70;;;;;;5024533;28;20728;-43
2022/03/23 08:40:24;;;;;;;7.45;4.55;;;23.80;31.60;;;;;;5023825;28;20026;-42
2022/03/23 08:42:50;;;;;;;5.47;4.32;;;23.80;31.70;;;;;;5023940;28;20064;-42
2022/03/23 08:45:17;;;;;;;6.15;4.35;;;23.80;31.60;;;;;;5022220;28;20537;-43
2022/03/23 08:47:43;;;;;;;5.93;4.63;;;23.80;31.60;;;;;;5023575;28;20033;-44
2022/03/23 08:50:12;;;;;;;5.15;3.83;;;23.80;31.60;;;;;;5025003;28;20033;-42
2022/03/23 08:52:39;;;;;;;5.50;3.92;;;23.80;31.60;;;;;;5025458;28;20032;-43
2022/03/23 08:55:07;;;;;;;5.07;3.47;;;23.80;31.50;;;;;;5025280;28;20083;-42
2022/03/23 08:57:33;;;;;;;6.40;4.32;;;23.80;31.50;;;;;;5022809;28;20021;-43
2022/03/23 08:59:59;;;;;;;5.32;4.15;;;23.80;31.50;;;;;;5024014;28;20052;-42
2022/03/23 09:02:25;;;;;;;5.78;4.05;;;23.80;31.50;;;;;;5023612;28;20060;-43
2022/03/23 09:04:51;;;;;;;5.70;4.00;;;23.80;31.50;;;;;;5019710;28;20029;-43
2022/03/23 09:07:17;;;;;;;5.53;3.75;;;23.80;31.50;;;;;;5022369;28;20033;-42
2022/03/23 09:09:43;;;;;;;5.47;4.18;;;23.80;31.50;;;;;;5022186;28;20029;-43
2022/03/23 09:12:09;;;;;;;6.15;4.43;;;23.80;31.50;;;;;;5024542;28;20038;-43
2022/03/23 09:14:36;;;;;;;5.30;3.80;;;23.90;31.60;;;;;;5024278;28;20128;-43
2022/03/23 09:17:02;;;;;;;5.55;4.00;;;23.90;31.50;;;;;;5023019;28;20076;-43
2022/03/23 09:19:28;;;;;;;5.20;3.65;;;23.90;31.50;;;;;;5022811;28;20029;-44
2022/03/23 09:21:54;;;;;;;4.63;3.60;;;23.90;31.50;;;;;;5021303;28;20405;-42
2022/03/23 09:24:20;;;;;;;6.40;4.30;;;23.90;31.40;;;;;;5021637;28;20025;-43
2022/03/23 09:26:47;;;;;;;5.88;4.20;;;23.90;31.50;;;;;;5022447;28;20029;-44
2022/03/23 09:29:13;;;;;;;5.15;3.88;;;23.90;31.50;;;;;;5023057;28;20033;-43
2022/03/23 09:31:39;;;;;;;4.97;3.63;;;23.90;31.50;;;;;;5023065;28;20091;-42
2022/03/23 09:34:06;;;;;;;5.00;3.30;;;23.90;31.50;;;;;;5023382;28;20060;-44
2022/03/23 09:39:18;;;;;;;4.80;3.60;;;23.90;31.50;;;;;;5021620;28;20118;-43
2022/03/23 09:41:48;;;;;;;6.15;4.25;;;23.90;31.50;;;;;;5022752;28;20030;-44
2022/03/23 09:44:14;;;;;;;5.35;4.15;;;23.90;31.60;;;;;;5022956;28;20119;-43
2022/03/23 09:46:40;;;;;;;5.05;3.55;;;23.90;31.60;;;;;;5023338;28;20658;-42
2022/03/23 09:49:06;;;;;;;9.45;4.38;;;24.00;31.50;;;;;;5022405;28;20045;-43
2022/03/23 09:51:34;;;;;;;5.82;4.15;;;23.90;31.50;;;;;;5022616;28;20036;-43
2022/03/23 09:54:01;;;;;;;5.78;3.80;;;23.90;31.50;;;;;;5023631;28;20067;-43
2022/03/23 09:56:27;;;;;;;4.60;3.50;;;24.00;31.50;;;;;;5023952;28;20057;-42
2022/03/23 09:58:53;;;;;;;5.72;3.90;;;23.90;31.50;;;;;;5021279;28;20104;-45
2022/03/23 10:01:31;;;;;;;5.25;4.07;;;23.90;31.50;;;;;;5023242;28;20033;-42
2022/03/23 10:04:09;;;;;;;5.57;3.85;;;24.00;31.50;;;;;;5023626;28;20034;-43
2022/03/23 10:06:59;;;;;;;5.68;3.92;;;23.90;31.50;;;;;;5022743;28;20717;-41
2022/03/23 10:09:40;;;;;;;8.82;3.97;;;23.90;31.50;;;;;;5020513;28;20091;-42
2022/03/23 10:12:43;;;;;;;4.72;3.42;;;24.00;31.50;;;;;;5022642;28;20104;-43
2022/03/23 10:15:39;;;;;;;5.38;3.63;;;24.00;31.50;;;;;;5021303;28;20534;-43
2022/03/23 10:18:26;;;;;;;5.68;4.07;;;23.90;31.40;;;;;;5022288;28;20043;-43
2022/03/23 10:20:52;;;;;;;6.95;4.00;;;23.90;31.40;;;;;;5021625;28;20024;-42
2022/03/23 10:23:21;;;;;;;7.05;4.05;;;23.90;31.10;;;;;;5022826;28;20029;-41
2022/03/23 10:25:47;;;;;;;17.17;8.55;;;24.00;31.10;;;;;;5021955;28;20025;-44
2022/03/23 10:28:14;;;;;;;28.38;10.90;;;23.90;31.50;;;;;;5022906;28;20406;-42
2022/03/23 10:30:41;;;;;;;30.27;13.55;;;24.00;31.60;;;;;;5023350;28;20099;-44
2022/03/23 10:33:22;;;;;;;30.45;12.38;;;23.90;31.80;;;;;;5023410;28;20088;-45
2022/03/23 10:35:49;;;;;;;25.90;10.43;;;23.90;32.00;;;;;;5022928;28;20449;-46
2022/03/23 10:38:20;;;;;;;20.60;9.60;;;23.90;32.10;;;;;;5021363;28;20025;-48
2022/03/23 10:40:49;;;;;;;19.52;9.75;;;24.00;32.10;;;;;;5013510;28;20033;-48
2022/03/23 10:43:34;;;;;;;20.77;9.75;;;24.00;32.00;;;;;;5017044;28;20030;-44
2022/03/23 10:46:11;;;;;;;19.08;9.43;;;24.00;31.90;;;;;;5021765;28;20103;-44
2022/03/23 10:48:48;;;;;;;13.57;8.38;;;24.00;31.90;;;;;;5012433;28;20088;-43
2022/03/23 10:51:24;;;;;;;15.35;8.38;;;24.00;31.80;;;;;;5013829;28;20021;-43
2022/03/23 10:53:49;;;;;;;14.93;7.75;;;24.00;31.70;;;;;;5013607;28;20181;-44
2022/03/23 10:56:16;;;;;;;15.32;8.68;;;24.00;31.70;;;;;;5019226;28;20025;-45
2022/03/23 10:58:42;;;;;;;18.60;8.70;;;24.00;31.70;;;;;;5019561;28;20508;-44
2022/03/23 11:01:09;;;;;;;16.25;7.38;;;24.00;31.60;;;;;;5020692;28;20029;-44
2022/03/23 11:03:40;;;;;;;13.75;8.35;;;24.00;31.60;;;;;;5020899;28;20136;-43
2022/03/23 11:06:12;;;;;;;15.02;7.18;;;24.10;31.70;;;;;;5023157;28;20037;-44
2022/03/23 11:08:38;;;;;;;12.65;7.50;;;24.10;31.70;;;;;;5025250;28;20028;-44
2022/03/23 11:16:35;;;;;;;11.23;7.43;;;24.10;31.60;;;;;;5020761;28;20076;-44
2022/03/23 11:19:10;;;;;;;11.18;7.47;;;24.10;31.80;;;;;;5026129;28;20018;-44
2022/03/23 11:21:58;;;;;;;11.25;6.78;;;24.10;31.80;;;;;;5026028;28;20541;-44
2022/03/23 11:24:49;;;;;;;10.45;6.68;;;24.20;31.80;;;;;;5006668;28;20033;-44
2022/03/23 11:27:19;;;;;;;10.32;5.05;;;24.10;31.80;;;;;;5023713;28;20116;-44
2022/03/23 11:29:47;;;;;;;9.27;5.97;;;24.10;31.80;;;;;;5023573;28;20049;-44
2022/03/23 11:32:15;;;;;;;9.02;5.75;;;24.20;31.90;;;;;;5024961;28;20030;-44
2022/03/23 11:34:45;;;;;;;9.07;5.28;;;24.10;31.90;;;;;;5025452;28;20038;-43
2022/03/23 11:37:12;;;;;;;9.55;5.20;;;24.20;31.90;;;;;;5023208;28;20026;-43
2022/03/23 11:39:41;;;;;;;9.88;5.93;;;24.20;31.80;;;;;;5026097;28;20026;-44
2022/03/23 11:42:07;;;;;;;7.95;5.03;;;24.20;31.90;;;;;;5024497;28;20029;-44
2022/03/23 11:44:36;;;;;;;9.93;5.50;;;24.20;31.90;;;;;;5024100;28;20501;-44
2022/03/23 11:47:11;;;;;;;10.63;5.35;;;24.20;31.90;;;;;;5024079;28;20040;-45
2022/03/23 11:49:49;;;;;;;9.82;5.90;;;24.20;31.90;;;;;;5023888;28;20128;-43
2022/03/23 11:52:53;;;;;;;10.65;4.88;;;24.20;31.90;;;;;;5026098;28;20021;-44
2022/03/23 11:55:42;;;;;;;9.15;5.28;;;24.20;31.90;;;;;;5044948;28;20029;-44
2022/03/23 11:58:18;;;;;;;7.75;5.03;;;24.20;31.90;;;;;;5020291;28;20073;-45
2022/03/23 12:00:51;;;;;;;7.63;5.05;;;24.20;32.00;;;;;;5024143;28;20052;-43
2022/03/23 12:03:50;;;;;;;9.15;5.68;;;24.30;32.10;;;;;;5018363;28;20025;-44
2022/03/23 12:06:39;;;;;;;8.60;6.05;;;24.30;32.20;;;;;;5021305;28;20483;-44
2022/03/23 12:09:05;;;;;;;7.75;4.47;;;24.30;32.30;;;;;;5025632;28;20026;-43
2022/03/23 12:11:38;;;;;;;9.10;6.65;;;24.30;32.40;;;;;;5025304;28;20017;-44
2022/03/23 12:14:05;;;;;;;;;;;24.40;33.60;;;;;;5025754;28;20028;-43
2022/03/23 12:17:02;;;;;;;7.35;5.32;;;24.40;33.20;;;;;;5023431;28;20410;-45
2022/03/23 12:19:31;;;;;;;8.23;5.60;;;24.50;32.80;;;;;;5020340;28;20041;-44
2022/03/23 12:22:06;;;;;;;7.15;4.68;;;24.50;32.40;;;;;;5024380;28;20111;-44
2022/03/23 12:24:40;;;;;;;7.32;4.72;;;24.60;32.10;;;;;;5024963;28;20504;-44
2022/03/23 12:27:47;;;;;;;7.97;4.97;;;24.60;31.90;;;;;;5025406;28;20033;-45
2022/03/23 12:30:30;;;;;;;6.60;4.68;;;24.70;31.80;;;;;;5014186;28;20033;-47
2022/03/23 12:33:08;;;;;;;8.27;5.00;;;24.70;31.80;;;;;;5024852;28;20036;-44
2022/03/23 12:35:35;;;;;;;6.90;4.45;;;24.70;31.80;;;;;;5023639;28;20527;-45
2022/03/23 12:38:02;;;;;;;7.85;4.78;;;24.70;31.80;;;;;;5024493;28;20026;-44
2022/03/23 12:40:40;;;;;;;6.22;4.35;;;24.70;31.80;;;;;;5025214;28;20505;-43
2022/03/23 12:43:06;;;;;;;6.47;4.40;;;24.70;31.70;;;;;;5025302;28;20045;-44
2022/03/23 12:45:33;;;;;;;6.50;4.10;;;24.80;31.60;;;;;;5024985;28;20118;-44
2022/03/23 12:57:49;;;;;;;8.85;4.68;;;24.80;32.20;;;;;;5016311;28;20041;-45
2022/03/23 12:59:19;;;;;;;5.05;3.72;;;24.90;31.30;;;;;;5021436;28;20049;-44
2022/03/23 13:01:46;;;;;;;5.90;3.97;;;24.90;31.40;;;;;;5023939;28;20389;-45
2022/03/23 13:05:01;;;;;;;6.22;4.15;;;24.90;31.30;;;;;;5024030;28;20440;-45
2022/03/23 13:07:29;;;;;;;6.88;4.13;;;25.00;31.20;;;;;;5018780;28;20038;-44
2022/03/23 13:10:05;;;;;;;6.43;4.43;;;25.00;31.20;;;;;;5024777;28;20036;-45
2022/03/23 13:12:31;;;;;;;6.13;4.18;;;25.00;31.10;;;;;;5021913;28;20033;-45
2022/03/23 13:14:58;;;;;;;5.72;3.80;;;25.00;31.10;;;;;;5022689;28;20039;-46
2022/03/23 13:17:24;;;;;;;5.85;4.10;;;25.10;31.20;;;;;;5022174;28;20033;-45
2022/03/23 13:19:56;;;;;;;5.90;3.72;;;25.10;31.10;;;;;;5022652;28;20262;-46